createdAt,value
2017-08-31T17:57:51.448Z,960.86
2017-08-31T17:58:51.513Z,960.9
2017-08-31T17:59:51.877Z,960.82
2017-08-31T18:00:51.511Z,960.89
2017-08-31T18:01:51.535Z,960.89
2017-08-31T18:02:51.565Z,960.91
2017-08-31T18:03:51.586Z,960.92
2017-08-31T18:04:51.623Z,960.89
2017-08-31T18:05:51.643Z,960.9
2017-08-31T18:06:51.682Z,960.78
2017-08-31T18:07:51.714Z,960.76
2017-08-31T19:49:43.249Z,960.12
2017-08-31T19:55:40.897Z,959.96
2017-08-31T19:56:40.924Z,959.95
2017-08-31T19:57:40.924Z,959.92
2017-08-31T19:58:40.969Z,959.96
2017-08-31T19:59:40.967Z,959.95
2017-08-31T20:00:40.983Z,960.03
2017-08-31T20:01:40.997Z,960.05
2017-08-31T20:02:41.016Z,960.07
2017-08-31T20:03:41.038Z,960.13
2017-08-31T20:04:41.058Z,960.12
2017-08-31T20:05:41.099Z,960.19
2017-08-31T20:06:41.104Z,960.21
2017-08-31T20:07:41.171Z,960.32
2017-08-31T20:08:41.143Z,960.33
2017-08-31T20:09:41.164Z,960.39
2017-08-31T20:10:41.190Z,960.34
2017-08-31T20:11:41.208Z,960.43
2017-08-31T20:12:41.231Z,960.42
2017-08-31T20:13:41.261Z,960.43
2017-08-31T20:14:41.279Z,960.45
2017-08-31T20:15:41.299Z,960.42
2017-08-31T20:16:41.318Z,960.42
2017-08-31T20:17:41.355Z,960.44
2017-08-31T20:18:41.365Z,960.37
2017-08-31T20:19:41.491Z,960.33
2017-08-31T20:20:41.550Z,960.35
2017-08-31T20:21:41.432Z,960.35
2017-08-31T20:22:41.454Z,960.34
2017-08-31T20:23:41.537Z,960.35
2017-08-31T20:24:41.525Z,960.33
2017-08-31T20:25:41.565Z,960.37
2017-08-31T20:26:41.544Z,960.29
2017-08-31T20:27:41.567Z,960.29
2017-08-31T20:28:41.601Z,960.3
2017-08-31T20:29:41.712Z,960.3
2017-08-31T20:30:41.636Z,960.35
2017-08-31T20:31:41.658Z,960.38
2017-08-31T20:32:41.682Z,960.4
2017-08-31T20:33:41.704Z,960.42
2017-08-31T20:34:41.735Z,960.47
2017-08-31T20:35:41.752Z,960.52
2017-08-31T20:36:41.773Z,960.47
2017-08-31T20:37:41.802Z,960.51
2017-08-31T20:38:41.869Z,960.49
2017-08-31T20:39:41.846Z,960.47
2017-08-31T20:40:41.867Z,960.5
2017-08-31T20:41:41.887Z,960.45
2017-08-31T20:42:41.915Z,960.48
2017-08-31T20:43:41.933Z,960.48
2017-08-31T20:44:41.958Z,960.48
2017-08-31T20:45:41.981Z,960.48
2017-08-31T20:46:42.002Z,960.48
2017-08-31T20:47:42.027Z,960.46
2017-08-31T20:48:42.052Z,960.45
2017-08-31T20:49:42.072Z,960.46
2017-08-31T20:50:42.095Z,960.42
2017-08-31T20:51:42.121Z,960.46
2017-08-31T20:52:42.164Z,960.51
2017-08-31T20:53:42.214Z,960.53
2017-08-31T20:54:42.195Z,960.51
2017-08-31T20:55:42.212Z,960.52
2017-08-31T20:56:42.241Z,960.52
2017-08-31T20:57:42.256Z,960.52
2017-08-31T20:58:42.280Z,960.51
2017-08-31T20:59:42.324Z,960.49
2017-08-31T21:00:42.325Z,960.46
2017-08-31T21:01:42.349Z,960.44
2017-08-31T21:02:42.373Z,960.4
2017-08-31T21:03:42.395Z,960.36
2017-08-31T21:04:42.420Z,960.37
2017-08-31T21:05:42.442Z,960.35
2017-08-31T21:06:42.463Z,960.39
2017-08-31T21:07:42.486Z,960.39
2017-08-31T21:08:42.508Z,960.39
2017-08-31T21:09:42.581Z,960.4
2017-08-31T21:10:42.560Z,960.4
2017-08-31T21:11:42.576Z,960.39
2017-08-31T21:12:42.599Z,960.38
2017-08-31T21:13:42.624Z,960.36
2017-08-31T21:14:42.654Z,960.34
2017-08-31T21:15:42.668Z,960.37
2017-08-31T21:16:42.692Z,960.33
2017-08-31T21:17:42.715Z,960.3
2017-08-31T21:18:42.739Z,960.29
2017-08-31T21:19:42.761Z,960.32
2017-08-31T21:20:42.786Z,960.32
2017-08-31T21:21:42.808Z,960.26
2017-08-31T21:22:42.831Z,960.26
2017-08-31T21:23:42.855Z,960.23
2017-08-31T21:24:42.874Z,960.24
2017-08-31T21:25:42.949Z,960.24
2017-08-31T21:26:42.931Z,960.23
2017-08-31T21:27:42.945Z,960.22
2017-08-31T21:28:42.968Z,960.2
2017-08-31T21:29:42.990Z,960.21
2017-08-31T21:30:43.037Z,960.21
2017-08-31T21:31:43.036Z,960.23
2017-08-31T21:32:43.071Z,960.26
2017-08-31T21:33:43.082Z,960.21
2017-08-31T21:34:43.104Z,960.21
2017-08-31T21:35:43.130Z,960.21
2017-08-31T21:36:43.152Z,960.18
2017-08-31T21:37:43.181Z,960.15
2017-08-31T21:38:43.199Z,960.21
2017-08-31T21:39:43.225Z,960.19
2017-08-31T21:40:43.291Z,960.21
2017-08-31T21:41:43.272Z,960.22
2017-08-31T21:42:43.296Z,960.22
2017-08-31T21:43:43.310Z,960.22
2017-08-31T21:44:43.334Z,960.27
2017-08-31T21:45:43.357Z,960.26
2017-08-31T21:46:43.379Z,960.32
2017-08-31T21:47:43.401Z,960.26
2017-08-31T21:48:43.423Z,960.36
2017-08-31T21:49:43.448Z,960.35
2017-08-31T21:50:43.471Z,960.35
2017-08-31T21:51:43.498Z,960.37
2017-08-31T21:52:43.516Z,960.41
2017-08-31T21:53:43.540Z,960.42
2017-08-31T21:54:43.574Z,960.44
2017-08-31T21:55:43.587Z,960.45
2017-08-31T21:56:43.606Z,960.45
2017-08-31T21:57:43.681Z,960.46
2017-08-31T21:58:43.659Z,960.48
2017-08-31T21:59:43.674Z,960.5
2017-08-31T22:00:43.699Z,960.46
2017-08-31T22:01:43.722Z,960.49
2017-08-31T22:02:43.743Z,960.53
2017-08-31T22:03:43.765Z,960.52
2017-08-31T22:04:43.790Z,960.5
2017-08-31T22:05:43.813Z,960.47
2017-08-31T22:06:43.838Z,960.44
2017-08-31T22:07:43.856Z,960.41
2017-08-31T22:08:43.883Z,960.34
2017-08-31T22:09:43.903Z,960.28
2017-08-31T22:10:43.926Z,960.27
2017-08-31T22:11:43.952Z,960.26
2017-08-31T22:12:44.020Z,960.29
2017-08-31T22:13:43.993Z,960.31
2017-08-31T22:14:44.024Z,960.36
2017-08-31T22:15:44.039Z,960.39
2017-08-31T22:16:44.067Z,960.39
2017-08-31T22:17:44.087Z,960.38
2017-08-31T22:18:44.108Z,960.33
2017-08-31T22:19:44.134Z,960.36
2017-08-31T22:20:44.158Z,960.37
2017-08-31T22:21:44.177Z,960.35
2017-08-31T22:22:44.199Z,960.36
2017-08-31T22:23:44.223Z,960.34
2017-08-31T22:24:44.254Z,960.36
2017-08-31T22:25:44.267Z,960.38
2017-08-31T22:26:44.290Z,960.37
2017-08-31T22:27:44.314Z,960.38
2017-08-31T22:28:44.337Z,960.39
2017-08-31T22:29:44.359Z,960.39
2017-08-31T22:30:44.380Z,960.47
2017-08-31T22:31:44.404Z,960.46
2017-08-31T22:32:44.434Z,960.42
2017-08-31T22:33:44.451Z,960.45
2017-08-31T22:34:44.477Z,960.43
2017-08-31T22:35:44.498Z,960.42
2017-08-31T22:36:44.571Z,960.45
2017-08-31T22:37:44.542Z,960.5
2017-08-31T22:38:44.564Z,960.48
2017-08-31T22:39:44.588Z,960.47
2017-08-31T22:40:44.609Z,960.47
2017-08-31T22:41:44.635Z,960.45
2017-08-31T22:42:44.655Z,960.44
2017-08-31T22:43:44.677Z,960.39
2017-08-31T22:44:44.699Z,960.44
2017-08-31T22:45:45.025Z,960.48
2017-08-31T22:46:44.747Z,960.49
2017-08-31T22:47:44.772Z,960.5
2017-08-31T22:48:44.792Z,960.52
2017-08-31T22:49:44.814Z,960.52
2017-08-31T22:50:44.838Z,960.51
2017-08-31T22:51:44.858Z,960.55
2017-08-31T22:52:44.882Z,960.52
2017-08-31T22:53:44.906Z,960.5
2017-08-31T22:54:44.927Z,960.51
2017-08-31T22:55:45.002Z,960.55
2017-08-31T22:56:44.974Z,960.55
2017-08-31T22:57:44.996Z,960.58
2017-08-31T22:58:45.018Z,960.55
2017-08-31T22:59:45.041Z,960.53
2017-08-31T23:00:45.063Z,960.55
2017-08-31T23:01:45.085Z,960.48
2017-08-31T23:02:45.109Z,960.53
2017-08-31T23:03:45.134Z,960.51
2017-08-31T23:04:45.153Z,960.44
2017-08-31T23:05:45.177Z,960.48
2017-08-31T23:06:45.251Z,960.5
2017-08-31T23:07:45.226Z,960.48
2017-08-31T23:08:45.245Z,960.52
2017-08-31T23:09:45.279Z,960.53
2017-08-31T23:10:45.291Z,960.49
2017-08-31T23:11:45.314Z,960.5
2017-08-31T23:12:45.336Z,960.49
2017-08-31T23:13:45.360Z,960.5
2017-08-31T23:14:45.382Z,960.43
2017-08-31T23:15:45.404Z,960.44
2017-08-31T23:16:45.426Z,960.42
2017-08-31T23:17:45.450Z,960.44
2017-08-31T23:18:45.478Z,960.38
2017-08-31T23:19:45.496Z,960.42
2017-08-31T23:20:45.519Z,960.4
2017-08-31T23:21:45.541Z,960.4
2017-08-31T23:22:45.617Z,960.38
2017-08-31T23:23:45.588Z,960.35
2017-08-31T23:24:45.609Z,960.31
2017-08-31T23:25:45.634Z,960.27
2017-08-31T23:26:45.657Z,960.29
2017-08-31T23:27:45.689Z,960.24
2017-08-31T23:28:45.703Z,960.22
2017-08-31T23:29:45.725Z,960.2
2017-08-31T23:30:45.748Z,960.18
2017-08-31T23:31:45.772Z,960.1
2017-08-31T23:32:45.791Z,960.07
2017-08-31T23:33:45.819Z,959.99
2017-08-31T23:34:45.836Z,959.94
2017-08-31T23:35:45.859Z,959.94
2017-08-31T23:36:45.932Z,959.91
2017-08-31T23:37:45.904Z,959.97
2017-08-31T23:38:45.926Z,959.93
2017-08-31T23:39:45.951Z,959.95
2017-08-31T23:40:45.972Z,959.98
2017-08-31T23:41:46.002Z,959.93
2017-08-31T23:42:46.018Z,959.96
2017-08-31T23:43:46.039Z,959.99
2017-08-31T23:44:46.068Z,959.97
2017-08-31T23:45:46.085Z,959.99
2017-08-31T23:46:46.113Z,960
2017-08-31T23:47:46.131Z,959.97
2017-08-31T23:48:46.157Z,959.89
2017-08-31T23:49:46.201Z,959.88
2017-08-31T23:50:46.200Z,959.86
2017-08-31T23:51:46.222Z,959.89
2017-08-31T23:52:46.244Z,959.85
2017-08-31T23:53:46.266Z,959.86
2017-08-31T23:54:46.294Z,959.88
2017-08-31T23:55:46.319Z,959.93
2017-08-31T23:56:46.335Z,959.93
2017-08-31T23:57:46.358Z,959.93
2017-08-31T23:58:46.389Z,959.92
2017-08-31T23:59:46.402Z,959.89
